windsock image

Welcome to Bigfield Strip.

anemometer image
     

 Help for dials.  
 
Local Met:

Wind:   
10 Min average:  
292 ° / 0.0 kts (0.0)
292° / 0.0

Temperature:  
28.7°C C
Dew Point:  
18.7°C C
QNH:  
Trend:  
1022.6 hpa mb
-0.3hPa/hr
BigField Strip. This image updates approximately every minute, it can have a two minute delay.  
 

Humidity:  
55 %
Sunrise:   05:57z
Sunset:   18:04z
Updated:  
  UTC
 
   More met info, trends, radar, history etc. available here   

LUTON Metar   EGGW 181350Z AUTO 31005KT 260V350 9999 SCT047 29/16 Q1023
 
  TAF   2017/06/18 12:15 TAF EGGW 181053Z 1812/1912 VRB05KT 9999 SCT040
 
BENSON Metar   EGUB 181350Z AUTO 07003KT 9999 // FEW060/// 28/17 Q1022
 
  TAF   2017/06/17 12:54 TAF TAF EGUB 171343Z 1712/1718 CNL
 
Big Field view 1 icon   Big Field view 2 icon   Big Field view 3 icon   Chart AL3a in PDF icon   Chart AL3a in Word icon

WARNING:
This information is provided by the Airstrip unofficial weather station, DO NOT depend on the data provided here for any purpose.
This page is updated for latest Metars & TAF's every 5 minutes. Refresh the browser to check for the lastest.
Page designed for a minimum browser size of 1024x768.
© Copyright 2017 BigField Strip. This page auto generated 14:26 UTC - 18/06/2017   Contact Us
Valid HTML 4.01 Transitional     Windows uptime: 2 Days 4 Hours 1 Minutes 6 Seconds    WD started: 10:31 16/06/17    Free memory: 1432MB     Valid CSS!